createdAt,value
2022-08-03T00:01:49.835Z,63.03
2022-08-03T00:04:17.074Z,62.95
2022-08-03T00:06:43.939Z,63.09
2022-08-03T00:09:11.344Z,63.34
2022-08-03T00:11:38.171Z,63.79
2022-08-03T00:14:08.472Z,64.38
2022-08-03T00:16:35.429Z,63.71
2022-08-03T00:19:03.247Z,63.79
2022-08-03T00:21:29.945Z,63.69
2022-08-03T00:23:56.714Z,63.68
2022-08-03T00:26:24.381Z,63.93
2022-08-03T00:28:51.072Z,63.56
2022-08-03T00:31:39.898Z,64.45
2022-08-03T00:34:10.536Z,64.00
2022-08-03T00:36:39.194Z,64.42
2022-08-03T00:39:05.815Z,64.16
2022-08-03T00:41:32.328Z,64.08
2022-08-03T00:43:59.029Z,64.00
2022-08-03T00:46:25.556Z,64.36
2022-08-03T00:48:53.958Z,65.15
2022-08-03T00:51:21.825Z,65.08
2022-08-03T00:53:49.464Z,66.00
2022-08-03T00:56:17.412Z,65.33
2022-08-03T00:58:45.749Z,65.43
2022-08-03T01:01:12.789Z,65.57
2022-08-03T01:03:39.548Z,65.67
2022-08-03T01:06:16.702Z,65.78
2022-08-03T01:09:11.156Z,66.72
2022-08-03T01:12:01.069Z,66.27
2022-08-03T01:14:38.434Z,66.35
2022-08-03T01:17:25.582Z,66.50
2022-08-03T01:20:04.077Z,66.63
2022-08-03T01:22:52.422Z,67.92
2022-08-03T01:25:45.806Z,66.39
2022-08-03T01:28:15.350Z,66.80
2022-08-03T01:30:45.412Z,66.53
2022-08-03T01:33:24.341Z,66.84
2022-08-03T01:35:57.328Z,67.18
2022-08-03T01:38:27.141Z,67.61
2022-08-03T01:40:55.490Z,67.54
2022-08-03T01:44:28.092Z,67.83
2022-08-03T01:46:15.828Z,67.86
2022-08-03T01:48:44.887Z,68.27
2022-08-03T01:51:13.495Z,68.58
2022-08-03T01:53:43.743Z,68.42
2022-08-03T01:56:11.735Z,68.70
2022-08-03T01:58:40.682Z,69.24
2022-08-03T02:01:09.357Z,68.79
2022-08-03T02:04:00.181Z,68.69
2022-08-03T02:07:00.030Z,69.08
2022-08-03T02:09:21.547Z,69.19
2022-08-03T02:11:49.591Z,69.33
2022-08-03T02:14:17.304Z,70.02
2022-08-03T02:16:45.879Z,69.78
2022-08-03T02:19:13.629Z,69.07
2022-08-03T02:21:57.233Z,69.32
2022-08-03T02:24:28.842Z,69.55
2022-08-03T02:26:59.554Z,69.89
2022-08-03T02:29:39.709Z,69.55
2022-08-03T02:32:12.251Z,70.03
2022-08-03T02:34:40.793Z,70.46
2022-08-03T02:37:10.316Z,70.52
2022-08-03T02:39:39.506Z,71.01
2022-08-03T02:42:08.897Z,70.76
2022-08-03T02:44:36.998Z,70.19
2022-08-03T02:47:10.365Z,71.90
2022-08-03T02:49:50.991Z,70.37
2022-08-03T02:52:21.863Z,70.29
2022-08-03T02:54:51.292Z,70.68
2022-08-03T02:57:19.970Z,70.57
2022-08-03T02:59:47.315Z,70.73
2022-08-03T03:02:16.594Z,70.57
2022-08-03T03:04:58.840Z,70.88
2022-08-03T03:07:37.243Z,70.72
2022-08-03T03:10:21.625Z,70.41
2022-08-03T03:12:50.339Z,71.19
2022-08-03T03:15:16.897Z,71.00
2022-08-03T03:17:44.342Z,71.21
2022-08-03T03:20:12.161Z,71.06
2022-08-03T03:22:40.093Z,71.37
2022-08-03T03:25:10.388Z,71.20
2022-08-03T03:27:37.466Z,71.39
2022-08-03T03:30:05.629Z,71.35
2022-08-03T03:32:32.689Z,71.54
2022-08-03T03:35:00.482Z,71.85
2022-08-03T03:37:27.703Z,72.09
2022-08-03T03:39:55.253Z,71.93
2022-08-03T03:42:22.194Z,72.35
2022-08-03T03:44:48.957Z,71.96
2022-08-03T03:47:15.683Z,72.07
2022-08-03T03:49:44.098Z,72.01
2022-08-03T03:52:11.392Z,72.32
2022-08-03T03:54:44.344Z,72.52
2022-08-03T03:57:13.166Z,72.33
2022-08-03T03:59:43.831Z,72.46
2022-08-03T04:02:11.984Z,72.76
2022-08-03T04:04:57.700Z,72.82
2022-08-03T04:07:44.842Z,72.69
2022-08-03T04:10:38.427Z,73.00
2022-08-03T04:13:10.095Z,72.66
2022-08-03T04:15:38.557Z,72.83
2022-08-03T04:18:09.564Z,72.84
2022-08-03T04:20:39.102Z,72.89
2022-08-03T04:23:13.596Z,72.83
2022-08-03T04:25:43.585Z,72.84
2022-08-03T04:28:30.386Z,73.10
2022-08-03T04:30:59.602Z,73.34
2022-08-03T04:33:29.473Z,73.30
2022-08-03T04:36:02.903Z,73.66
2022-08-03T04:38:36.702Z,73.72
2022-08-03T04:41:04.834Z,73.74
2022-08-03T04:43:34.171Z,73.60
2022-08-03T04:46:02.660Z,73.68
2022-08-03T04:48:29.351Z,73.68
2022-08-03T04:50:56.025Z,73.95
2022-08-03T04:53:22.595Z,73.83
2022-08-03T04:55:49.916Z,74.24
2022-08-03T04:58:16.493Z,74.15
2022-08-03T05:00:43.381Z,74.10
2022-08-03T05:03:23.499Z,74.40
2022-08-03T05:05:52.661Z,74.38
2022-08-03T05:08:20.748Z,74.44
2022-08-03T05:10:55.439Z,74.48
2022-08-03T05:13:25.440Z,74.66
2022-08-03T05:15:53.188Z,74.90
2022-08-03T05:18:19.835Z,74.73
2022-08-03T05:20:46.572Z,74.97
2022-08-03T05:23:13.328Z,74.84
2022-08-03T05:25:39.853Z,75.28
2022-08-03T05:28:16.199Z,75.26
2022-08-03T05:30:42.756Z,75.12
2022-08-03T05:33:09.437Z,75.30
2022-08-03T05:35:55.962Z,75.64
2022-08-03T05:38:28.628Z,75.97
2022-08-03T05:41:22.684Z,76.01
2022-08-03T05:43:44.159Z,75.71
2022-08-03T05:46:11.989Z,76.74
2022-08-03T05:48:39.258Z,77.08
2022-08-03T05:51:11.101Z,77.61
2022-08-03T05:53:38.604Z,77.49
2022-08-03T05:56:15.349Z,77.49
2022-08-03T05:58:46.213Z,77.24
2022-08-03T06:01:13.265Z,76.93
2022-08-03T06:03:40.492Z,76.74
2022-08-03T06:06:06.961Z,76.60
2022-08-03T06:08:34.620Z,76.10
2022-08-03T06:11:01.430Z,75.63
2022-08-03T06:13:28.095Z,75.00
2022-08-03T06:15:54.623Z,73.73
2022-08-03T06:18:21.455Z,73.95
2022-08-03T06:20:49.423Z,73.19
2022-08-03T06:23:17.686Z,71.47
2022-08-03T06:25:44.845Z,72.17
2022-08-03T06:28:42.610Z,70.70
2022-08-03T06:31:02.099Z,71.02
2022-08-03T06:34:31.218Z,70.29
2022-08-03T06:36:15.802Z,70.13
2022-08-03T06:38:42.382Z,69.84
2022-08-03T06:41:08.883Z,68.90
2022-08-03T06:43:38.146Z,68.81
2022-08-03T06:46:24.169Z,68.06
2022-08-03T06:48:50.953Z,67.77
2022-08-03T06:51:17.526Z,67.32
2022-08-03T06:53:44.217Z,67.09
2022-08-03T06:56:11.364Z,66.96
2022-08-03T06:58:38.428Z,66.65
2022-08-03T07:01:05.292Z,65.68
2022-08-03T07:03:31.975Z,65.41
2022-08-03T07:05:59.825Z,65.03
2022-08-03T07:08:33.933Z,64.96
2022-08-03T07:11:01.949Z,64.73
2022-08-03T07:13:28.792Z,64.81
2022-08-03T07:15:56.772Z,64.66
2022-08-03T07:18:27.573Z,64.62
2022-08-03T07:20:57.242Z,64.87
2022-08-03T07:23:24.006Z,64.24
2022-08-03T07:25:51.030Z,64.41
2022-08-03T07:28:18.136Z,64.26
2022-08-03T07:30:44.885Z,64.47
2022-08-03T07:33:11.557Z,64.30
2022-08-03T07:35:38.269Z,64.24
2022-08-03T07:38:04.818Z,64.31
2022-08-03T07:40:31.937Z,63.95
2022-08-03T07:42:58.936Z,64.34
2022-08-03T07:45:26.751Z,64.10
2022-08-03T07:47:54.276Z,64.54
2022-08-03T07:50:22.526Z,64.32
2022-08-03T07:52:50.618Z,64.09
2022-08-03T07:55:20.721Z,64.33
2022-08-03T07:57:48.728Z,64.27
2022-08-03T08:00:18.599Z,63.94
2022-08-03T08:02:45.896Z,64.22
2022-08-03T08:05:12.630Z,64.06
2022-08-03T08:07:39.749Z,64.05
2022-08-03T08:10:08.657Z,64.21
2022-08-03T08:12:36.471Z,64.17
2022-08-03T08:15:04.637Z,63.83
2022-08-03T08:17:31.646Z,63.95
2022-08-03T08:19:58.634Z,63.84
2022-08-03T08:22:30.263Z,63.75
2022-08-03T08:24:59.461Z,63.79
2022-08-03T08:27:26.320Z,63.24
2022-08-03T08:29:55.126Z,63.36
2022-08-03T08:32:26.467Z,63.17
2022-08-03T08:34:54.697Z,63.22
2022-08-03T08:37:21.417Z,62.78
2022-08-03T08:39:48.185Z,62.83
2022-08-03T08:42:15.983Z,62.78
2022-08-03T08:44:42.889Z,62.04
2022-08-03T08:47:11.345Z,61.73
2022-08-03T08:49:40.306Z,61.56
2022-08-03T08:52:25.162Z,61.29
2022-08-03T08:54:58.374Z,60.83
2022-08-03T08:57:42.399Z,61.06
2022-08-03T09:00:14.613Z,60.61
2022-08-03T09:02:45.477Z,60.89
2022-08-03T09:05:14.324Z,60.40
2022-08-03T09:07:42.564Z,60.09
2022-08-03T09:10:13.263Z,60.08
2022-08-03T09:12:45.029Z,59.78
2022-08-03T09:15:31.318Z,59.10
2022-08-03T09:18:01.182Z,58.77
2022-08-03T09:20:29.866Z,58.62
2022-08-03T09:22:59.453Z,58.66
2022-08-03T09:25:30.164Z,57.78
2022-08-03T09:28:07.268Z,56.99
2022-08-03T09:30:35.324Z,57.58
2022-08-03T09:33:05.395Z,57.68
2022-08-03T09:35:53.130Z,57.42
2022-08-03T09:38:26.519Z,56.62
2022-08-03T09:41:01.001Z,57.39
2022-08-03T09:43:28.217Z,57.52
2022-08-03T09:46:04.553Z,57.39
2022-08-03T09:48:33.342Z,57.24
2022-08-03T09:51:13.479Z,57.09
2022-08-03T09:53:57.283Z,56.51
2022-08-03T09:56:39.096Z,56.20
2022-08-03T09:59:06.016Z,55.82
2022-08-03T10:01:35.011Z,56.22
2022-08-03T10:04:04.379Z,54.85
2022-08-03T10:06:32.924Z,55.53
2022-08-03T10:09:09.489Z,54.70
2022-08-03T10:11:41.244Z,54.95
2022-08-03T10:14:11.530Z,53.76
2022-08-03T10:16:40.381Z,53.70
2022-08-03T10:19:08.562Z,53.86
2022-08-03T10:21:46.671Z,53.58
2022-08-03T10:24:17.098Z,52.95
2022-08-03T10:26:49.751Z,52.93
2022-08-03T10:29:22.761Z,52.88
2022-08-03T10:31:57.834Z,52.17
2022-08-03T10:34:28.854Z,51.46
2022-08-03T10:37:01.463Z,52.13
2022-08-03T10:39:29.986Z,52.42
2022-08-03T10:41:59.972Z,50.87
2022-08-03T10:44:37.390Z,50.94
2022-08-03T10:47:05.154Z,50.99
2022-08-03T10:49:34.403Z,50.39
2022-08-03T10:52:13.005Z,50.74
2022-08-03T10:55:10.900Z,50.65
2022-08-03T10:57:58.135Z,48.49
2022-08-03T11:00:27.997Z,49.13
2022-08-03T11:03:14.147Z,49.11
2022-08-03T11:05:54.474Z,48.26
2022-08-03T11:08:35.069Z,48.29
2022-08-03T11:11:21.598Z,46.29
2022-08-03T11:14:04.970Z,47.85
2022-08-03T11:16:37.094Z,47.85
2022-08-03T11:19:06.972Z,47.08
2022-08-03T11:21:52.735Z,47.64
2022-08-03T11:24:39.117Z,47.44
2022-08-03T11:27:14.846Z,47.09
2022-08-03T11:30:10.318Z,46.98
2022-08-03T11:32:48.602Z,46.51
2022-08-03T11:35:15.518Z,45.61
2022-08-03T11:38:03.302Z,45.40
2022-08-03T11:40:38.980Z,44.31
2022-08-03T11:43:30.700Z,44.48
2022-08-03T11:46:03.430Z,43.84
2022-08-03T11:48:39.541Z,44.75
2022-08-03T11:51:08.767Z,44.42
2022-08-03T11:53:41.922Z,44.57
2022-08-03T11:56:12.706Z,44.59
2022-08-03T11:59:16.737Z,43.97
2022-08-03T12:01:35.535Z,44.44
2022-08-03T12:04:06.122Z,43.85
2022-08-03T12:06:55.141Z,43.55
2022-08-03T12:09:22.194Z,43.71
2022-08-03T12:11:51.636Z,42.98
2022-08-03T12:14:48.862Z,43.03
2022-08-03T12:17:14.961Z,42.93
2022-08-03T12:19:42.964Z,42.11
2022-08-03T12:22:09.627Z,42.26
2022-08-03T12:24:47.167Z,40.62
2022-08-03T12:27:26.201Z,41.97
2022-08-03T12:29:58.128Z,41.79
2022-08-03T12:32:26.430Z,41.66
2022-08-03T12:34:53.044Z,41.37
2022-08-03T12:37:22.677Z,41.58
2022-08-03T12:40:00.631Z,39.83
2022-08-03T12:42:35.438Z,39.50
2022-08-03T12:45:21.166Z,38.87
2022-08-03T12:47:55.137Z,39.13
2022-08-03T12:50:34.977Z,38.76
2022-08-03T12:53:07.917Z,39.59
2022-08-03T12:55:56.388Z,39.26
2022-08-03T12:58:34.789Z,39.74
2022-08-03T13:01:09.699Z,39.82
2022-08-03T13:03:50.196Z,40.18
2022-08-03T13:06:20.626Z,40.23
2022-08-03T13:08:48.348Z,39.78
2022-08-03T13:11:58.050Z,40.44
2022-08-03T13:14:17.487Z,40.27
2022-08-03T13:16:47.093Z,40.80
2022-08-03T13:19:15.502Z,40.57
2022-08-03T13:22:01.333Z,40.57
2022-08-03T13:24:30.526Z,39.59
2022-08-03T13:26:58.398Z,40.49
2022-08-03T13:29:24.952Z,40.40
2022-08-03T13:31:52.819Z,40.22
2022-08-03T13:34:23.555Z,40.69
2022-08-03T13:37:09.300Z,40.90
2022-08-03T13:39:57.955Z,40.68
2022-08-03T13:42:23.054Z,40.66
2022-08-03T13:44:49.762Z,40.72
2022-08-03T13:47:16.459Z,40.13
2022-08-03T13:50:00.136Z,40.88
2022-08-03T13:52:30.134Z,40.62
2022-08-03T13:54:56.765Z,41.05
2022-08-03T13:58:02.243Z,41.24
2022-08-03T14:00:10.700Z,40.52
2022-08-03T14:02:38.444Z,40.58
2022-08-03T14:05:05.469Z,40.84
2022-08-03T14:07:32.060Z,41.25
2022-08-03T14:09:58.913Z,40.85
2022-08-03T14:12:25.518Z,41.00
2022-08-03T14:14:52.036Z,41.43
2022-08-03T14:17:19.120Z,41.16
2022-08-03T14:19:53.446Z,40.61
2022-08-03T14:22:21.548Z,40.68
2022-08-03T14:24:49.210Z,40.13
2022-08-03T14:27:16.289Z,40.35
2022-08-03T14:29:42.857Z,40.23
2022-08-03T14:32:13.190Z,40.27
2022-08-03T14:34:40.841Z,40.93
2022-08-03T14:37:07.481Z,40.58
2022-08-03T14:42:20.660Z,40.61
2022-08-03T14:44:47.650Z,40.84
2022-08-03T14:47:14.464Z,40.96
2022-08-03T14:50:37.134Z,40.79
2022-08-03T14:52:28.010Z,40.65
2022-08-03T14:54:54.614Z,41.14
2022-08-03T14:57:21.796Z,40.80
2022-08-03T14:59:56.148Z,40.87
2022-08-03T15:02:24.932Z,41.05
2022-08-03T15:04:52.157Z,40.65
2022-08-03T15:07:19.233Z,40.61
2022-08-03T15:09:46.180Z,40.71
2022-08-03T15:12:12.736Z,40.03
2022-08-03T15:14:39.285Z,40.85
2022-08-03T15:17:06.540Z,40.45
2022-08-03T15:20:03.978Z,40.21
2022-08-03T15:22:25.406Z,40.70
2022-08-03T15:25:03.532Z,40.12
2022-08-03T15:27:30.230Z,40.57
2022-08-03T15:30:04.968Z,40.54
2022-08-03T15:32:34.201Z,40.23
2022-08-03T15:35:00.948Z,40.76
2022-08-03T15:37:27.932Z,40.77
2022-08-03T15:39:58.830Z,40.57
2022-08-03T15:42:33.422Z,40.63
2022-08-03T15:45:00.078Z,40.28
2022-08-03T15:47:27.909Z,40.17
2022-08-03T15:49:54.643Z,40.23
2022-08-03T15:52:21.463Z,40.24
2022-08-03T15:54:48.254Z,39.84
2022-08-03T15:57:14.772Z,40.00
2022-08-03T15:59:41.267Z,40.07
2022-08-03T16:02:07.773Z,39.89
2022-08-03T16:04:34.466Z,40.32
2022-08-03T16:07:01.216Z,40.45
2022-08-03T16:09:42.898Z,40.26
2022-08-03T16:12:15.482Z,39.84
2022-08-03T16:14:52.341Z,40.25
2022-08-03T16:17:20.280Z,39.92
2022-08-03T16:19:47.022Z,40.49
2022-08-03T16:22:14.353Z,40.55
2022-08-03T16:24:41.388Z,40.07
2022-08-03T16:27:15.586Z,40.28
2022-08-03T16:29:44.508Z,40.12
2022-08-03T16:32:11.756Z,40.06
2022-08-03T16:34:39.329Z,40.13
2022-08-03T16:37:35.438Z,40.31
2022-08-03T16:39:54.159Z,40.41
2022-08-03T16:42:20.720Z,40.14
2022-08-03T16:44:47.503Z,40.54
2022-08-03T16:47:21.752Z,40.48
2022-08-03T16:49:54.298Z,40.41
2022-08-03T16:52:23.774Z,40.63
2022-08-03T16:54:53.760Z,40.85
2022-08-03T16:57:29.978Z,40.41
2022-08-03T17:00:34.058Z,40.94
2022-08-03T17:03:04.318Z,40.85
2022-08-03T17:05:47.479Z,40.88
2022-08-03T17:08:15.427Z,40.84
2022-08-03T17:10:45.216Z,40.82
2022-08-03T17:13:22.066Z,41.10
2022-08-03T17:15:57.710Z,40.67
2022-08-03T17:18:26.672Z,40.94
2022-08-03T17:20:55.480Z,40.67
2022-08-03T17:23:47.819Z,41.13
2022-08-03T17:26:21.703Z,41.43
2022-08-03T17:28:57.438Z,41.32
2022-08-03T17:31:31.212Z,41.29
2022-08-03T17:34:01.743Z,41.56
2022-08-03T17:37:01.661Z,41.79
2022-08-03T17:39:17.133Z,42.21
2022-08-03T17:41:50.139Z,42.12
2022-08-03T17:44:31.975Z,42.58
2022-08-03T17:47:06.661Z,42.61
2022-08-03T17:49:39.850Z,42.42
2022-08-03T17:52:31.059Z,42.66
2022-08-03T17:55:54.916Z,42.78
2022-08-03T17:58:01.416Z,42.89
2022-08-03T18:00:51.543Z,42.84
2022-08-03T18:03:57.914Z,43.04
2022-08-03T18:06:28.956Z,43.39
2022-08-03T18:09:04.872Z,43.47
2022-08-03T18:11:50.742Z,43.29
2022-08-03T18:14:26.609Z,43.55
2022-08-03T18:17:00.533Z,44.02
2022-08-03T18:20:02.550Z,43.77
2022-08-03T18:22:16.480Z,44.10
2022-08-03T18:24:46.474Z,43.99
2022-08-03T18:27:16.020Z,44.17
2022-08-03T18:29:47.041Z,44.09
2022-08-03T18:35:03.352Z,44.07
2022-08-03T18:37:32.696Z,44.12
2022-08-03T18:40:21.258Z,44.14
2022-08-03T18:42:50.917Z,43.94
2022-08-03T18:45:56.284Z,44.01
2022-08-03T18:48:46.173Z,44.35
2022-08-03T18:51:28.771Z,44.59
2022-08-03T18:54:45.447Z,44.34
2022-08-03T18:57:21.829Z,44.47
2022-08-03T19:00:12.252Z,44.51
2022-08-03T19:02:50.133Z,44.75
2022-08-03T19:05:20.389Z,44.67
2022-08-03T19:07:58.270Z,44.51
2022-08-03T19:10:34.815Z,44.64
2022-08-03T19:13:11.449Z,45.06
2022-08-03T19:15:51.318Z,44.96
2022-08-03T19:18:20.609Z,44.64
2022-08-03T19:23:38.005Z,44.96
2022-08-03T19:26:07.621Z,45.19
2022-08-03T19:28:58.024Z,45.28
2022-08-03T19:31:30.716Z,45.76
2022-08-03T19:34:00.386Z,45.56
2022-08-03T19:36:32.726Z,46.10
2022-08-03T19:38:59.425Z,45.85
2022-08-03T19:41:42.349Z,45.75
2022-08-03T19:44:19.891Z,46.40
2022-08-03T19:46:53.418Z,46.37
2022-08-03T19:49:26.009Z,46.49
2022-08-03T19:52:14.800Z,46.00
2022-08-03T19:54:54.210Z,45.88
2022-08-03T19:57:34.233Z,45.80
2022-08-03T20:00:03.382Z,46.10
2022-08-03T20:02:34.248Z,45.85
2022-08-03T20:05:01.397Z,45.92
2022-08-03T20:07:34.180Z,45.86
2022-08-03T20:10:04.765Z,46.36
2022-08-03T20:12:39.072Z,46.11
2022-08-03T20:15:09.341Z,46.09
2022-08-03T20:17:56.801Z,46.05
2022-08-03T20:20:27.162Z,46.79
2022-08-03T20:22:57.823Z,46.56
2022-08-03T20:25:38.280Z,46.33
2022-08-03T20:28:14.538Z,47.13
2022-08-03T20:30:47.194Z,46.95
2022-08-03T20:33:18.331Z,46.73
2022-08-03T20:35:48.919Z,46.98
2022-08-03T20:38:17.275Z,47.10
2022-08-03T20:40:45.091Z,47.62
2022-08-03T20:43:11.781Z,47.28
2022-08-03T20:48:28.194Z,47.94
2022-08-03T20:50:56.563Z,48.27
2022-08-03T20:53:57.263Z,48.12
2022-08-03T20:56:11.442Z,48.53
2022-08-03T20:58:41.915Z,48.66
2022-08-03T21:01:08.718Z,49.13
2022-08-03T21:03:40.588Z,49.22
2022-08-03T21:06:12.068Z,49.96
2022-08-03T21:08:48.211Z,49.76
2022-08-03T21:11:19.266Z,50.51
2022-08-03T21:12:58.266Z,43.98
2022-08-03T21:13:01.994Z,44.84
2022-08-03T21:13:14.022Z,47.94
2022-08-03T21:13:51.804Z,50.55
2022-08-03T21:16:21.558Z,50.55
2022-08-03T21:18:52.194Z,51.51
2022-08-03T21:21:23.415Z,51.72
2022-08-03T21:23:52.960Z,51.77
2022-08-03T21:26:22.607Z,52.49
2022-08-03T21:28:53.857Z,52.20
2022-08-03T21:31:24.671Z,51.92
2022-08-03T21:33:55.596Z,52.06
2022-08-03T21:36:22.469Z,52.08
2022-08-03T21:38:56.589Z,51.88
2022-08-03T21:41:25.021Z,51.91
2022-08-03T21:43:51.652Z,52.17
2022-08-03T21:46:20.017Z,52.29
2022-08-03T21:48:53.483Z,52.38
2022-08-03T21:51:23.704Z,52.14
2022-08-03T21:54:03.451Z,52.71
2022-08-03T21:56:41.399Z,53.19
2022-08-03T21:59:15.805Z,52.39
2022-08-03T22:01:45.593Z,52.37
2022-08-03T22:04:50.922Z,52.28
2022-08-03T22:07:04.644Z,52.71
2022-08-03T22:09:34.228Z,52.82
2022-08-03T22:12:00.883Z,52.50
2022-08-03T22:14:27.668Z,52.71
2022-08-03T22:16:54.752Z,52.70
2022-08-03T22:19:21.699Z,53.04
2022-08-03T22:21:49.150Z,52.70
2022-08-03T22:24:19.716Z,53.07
2022-08-03T22:27:09.588Z,53.04
2022-08-03T22:29:40.238Z,53.31
2022-08-03T22:32:07.049Z,53.18
2022-08-03T22:34:34.304Z,53.21
2022-08-03T22:37:04.690Z,53.58
2022-08-03T22:39:31.655Z,53.38
2022-08-03T22:42:00.227Z,53.43
2022-08-03T22:44:27.942Z,53.54
2022-08-03T22:46:55.502Z,53.49
2022-08-03T22:49:22.493Z,54.26
2022-08-03T22:51:51.727Z,53.84
2022-08-03T22:54:18.680Z,54.13
2022-08-03T22:56:46.976Z,54.08
2022-08-03T22:59:40.082Z,54.18
2022-08-03T23:02:20.169Z,54.82
2022-08-03T23:04:52.332Z,54.51
2022-08-03T23:07:26.913Z,54.48
2022-08-03T23:09:54.621Z,54.18
2022-08-03T23:12:22.630Z,54.48
2022-08-03T23:14:55.255Z,54.72
2022-08-03T23:17:27.832Z,54.77
2022-08-03T23:19:57.796Z,54.70
2022-08-03T23:22:29.429Z,54.81
2022-08-03T23:24:59.375Z,55.29
2022-08-03T23:27:27.813Z,55.24
2022-08-03T23:29:57.613Z,55.23
2022-08-03T23:32:27.339Z,55.62
2022-08-03T23:35:18.699Z,56.12
2022-08-03T23:38:04.642Z,55.72
2022-08-03T23:40:33.565Z,56.80
2022-08-03T23:43:02.079Z,57.78
2022-08-03T23:45:31.279Z,58.04
2022-08-03T23:47:57.865Z,58.65
2022-08-03T23:50:24.589Z,59.13
2022-08-03T23:53:10.994Z,59.60
2022-08-03T23:55:47.315Z,59.07
2022-08-03T23:58:34.836Z,60.74
